sensor_id;sensor_type;location;lat;lon;timestamp;temperature;humidity
19039;DHT22;9652;49.014;12.052;2023-02-21T00:00:08;9.00;59.10
19039;DHT22;9652;49.014;12.052;2023-02-21T00:02:54;9.00;59.30
19039;DHT22;9652;49.014;12.052;2023-02-21T00:05:39;8.90;59.30
19039;DHT22;9652;49.014;12.052;2023-02-21T00:08:24;8.90;59.30
19039;DHT22;9652;49.014;12.052;2023-02-21T00:11:08;9.00;59.50
19039;DHT22;9652;49.014;12.052;2023-02-21T00:13:53;8.90;59.50
19039;DHT22;9652;49.014;12.052;2023-02-21T00:16:38;8.90;59.60
19039;DHT22;9652;49.014;12.052;2023-02-21T00:19:24;8.90;59.70
19039;DHT22;9652;49.014;12.052;2023-02-21T00:22:09;8.90;59.70
19039;DHT22;9652;49.014;12.052;2023-02-21T00:24:54;8.90;59.70
19039;DHT22;9652;49.014;12.052;2023-02-21T00:27:38;8.90;59.70
19039;DHT22;9652;49.014;12.052;2023-02-21T00:30:24;8.90;59.80
19039;DHT22;9652;49.014;12.052;2023-02-21T00:33:08;8.90;59.80
19039;DHT22;9652;49.014;12.052;2023-02-21T00:35:54;8.90;59.80
19039;DHT22;9652;49.014;12.052;2023-02-21T00:38:39;8.90;59.90
19039;DHT22;9652;49.014;12.052;2023-02-21T00:41:24;8.90;60.00
19039;DHT22;9652;49.014;12.052;2023-02-21T00:44:09;8.90;60.20
19039;DHT22;9652;49.014;12.052;2023-02-21T00:46:54;8.90;60.20
19039;DHT22;9652;49.014;12.052;2023-02-21T00:49:38;8.80;60.10
19039;DHT22;9652;49.014;12.052;2023-02-21T00:52:24;8.80;60.10
19039;DHT22;9652;49.014;12.052;2023-02-21T00:55:09;8.80;60.10
19039;DHT22;9652;49.014;12.052;2023-02-21T00:57:54;8.80;60.10
19039;DHT22;9652;49.014;12.052;2023-02-21T01:00:38;8.80;60.10
19039;DHT22;9652;49.014;12.052;2023-02-21T01:03:23;8.80;60.20
19039;DHT22;9652;49.014;12.052;2023-02-21T01:06:09;8.80;60.30
19039;DHT22;9652;49.014;12.052;2023-02-21T01:08:56;8.70;60.30
19039;DHT22;9652;49.014;12.052;2023-02-21T01:11:40;8.70;60.50
19039;DHT22;9652;49.014;12.052;2023-02-21T01:14:25;8.70;60.50
19039;DHT22;9652;49.014;12.052;2023-02-21T01:17:09;8.70;60.50
19039;DHT22;9652;49.014;12.052;2023-02-21T01:19:54;8.60;60.50
19039;DHT22;9652;49.014;12.052;2023-02-21T01:22:39;8.60;60.60
19039;DHT22;9652;49.014;12.052;2023-02-21T01:25:25;8.60;61.50
19039;DHT22;9652;49.014;12.052;2023-02-21T01:28:09;8.60;60.80
19039;DHT22;9652;49.014;12.052;2023-02-21T01:30:54;8.60;60.80
19039;DHT22;9652;49.014;12.052;2023-02-21T01:33:39;8.50;60.90
19039;DHT22;9652;49.014;12.052;2023-02-21T01:36:25;8.50;61.00
19039;DHT22;9652;49.014;12.052;2023-02-21T01:39:10;8.50;61.00
19039;DHT22;9652;49.014;12.052;2023-02-21T01:41:57;8.50;61.10
19039;DHT22;9652;49.014;12.052;2023-02-21T01:44:44;8.50;61.10
19039;DHT22;9652;49.014;12.052;2023-02-21T01:47:32;8.50;61.20
19039;DHT22;9652;49.014;12.052;2023-02-21T01:50:20;8.40;61.20
19039;DHT22;9652;49.014;12.052;2023-02-21T01:53:12;8.40;61.30
19039;DHT22;9652;49.014;12.052;2023-02-21T01:55:59;8.40;61.30
19039;DHT22;9652;49.014;12.052;2023-02-21T01:58:49;8.40;61.30
19039;DHT22;9652;49.014;12.052;2023-02-21T02:01:41;8.30;61.40
19039;DHT22;9652;49.014;12.052;2023-02-21T02:04:31;8.30;61.50
19039;DHT22;9652;49.014;12.052;2023-02-21T02:07:17;8.30;61.40
19039;DHT22;9652;49.014;12.052;2023-02-21T02:10:02;8.30;61.50
19039;DHT22;9652;49.014;12.052;2023-02-21T02:13:05;8.20;61.50
19039;DHT22;9652;49.014;12.052;2023-02-21T02:15:52;8.20;61.80
19039;DHT22;9652;49.014;12.052;2023-02-21T02:18:50;8.20;61.90
19039;DHT22;9652;49.014;12.052;2023-02-21T02:22:32;8.20;62.40
19039;DHT22;9652;49.014;12.052;2023-02-21T02:25:32;8.20;62.70
19039;DHT22;9652;49.014;12.052;2023-02-21T02:28:28;8.10;62.10
19039;DHT22;9652;49.014;12.052;2023-02-21T02:31:34;8.10;62.20
19039;DHT22;9652;49.014;12.052;2023-02-21T02:34:42;8.00;62.10
19039;DHT22;9652;49.014;12.052;2023-02-21T02:37:22;8.00;62.60
19039;DHT22;9652;49.014;12.052;2023-02-21T02:39:59;8.00;61.90
19039;DHT22;9652;49.014;12.052;2023-02-21T02:42:43;8.00;62.10
19039;DHT22;9652;49.014;12.052;2023-02-21T02:45:25;8.00;62.20
19039;DHT22;9652;49.014;12.052;2023-02-21T02:48:01;7.90;62.10
19039;DHT22;9652;49.014;12.052;2023-02-21T02:50:38;7.90;62.20
19039;DHT22;9652;49.014;12.052;2023-02-21T02:53:07;7.90;62.20
19039;DHT22;9652;49.014;12.052;2023-02-21T02:55:39;7.90;62.10
19039;DHT22;9652;49.014;12.052;2023-02-21T02:58:11;7.80;62.20
19039;DHT22;9652;49.014;12.052;2023-02-21T03:00:41;7.80;62.90
19039;DHT22;9652;49.014;12.052;2023-02-21T03:03:26;7.80;62.20
19039;DHT22;9652;49.014;12.052;2023-02-21T03:06:13;7.80;62.60
19039;DHT22;9652;49.014;12.052;2023-02-21T03:08:55;7.80;62.60
19039;DHT22;9652;49.014;12.052;2023-02-21T03:11:39;7.80;62.40
19039;DHT22;9652;49.014;12.052;2023-02-21T03:14:14;7.70;62.40
19039;DHT22;9652;49.014;12.052;2023-02-21T03:16:47;7.70;62.40
19039;DHT22;9652;49.014;12.052;2023-02-21T03:19:21;7.70;62.60
19039;DHT22;9652;49.014;12.052;2023-02-21T03:21:55;7.60;62.50
19039;DHT22;9652;49.014;12.052;2023-02-21T03:24:26;7.60;62.70
19039;DHT22;9652;49.014;12.052;2023-02-21T03:26:59;7.60;62.70
19039;DHT22;9652;49.014;12.052;2023-02-21T03:29:52;7.60;62.80
19039;DHT22;9652;49.014;12.052;2023-02-21T03:32:25;7.60;62.60
19039;DHT22;9652;49.014;12.052;2023-02-21T03:34:55;7.50;62.70
19039;DHT22;9652;49.014;12.052;2023-02-21T03:37:31;7.50;62.70
19039;DHT22;9652;49.014;12.052;2023-02-21T03:39:59;7.50;63.00
19039;DHT22;9652;49.014;12.052;2023-02-21T03:42:30;7.50;62.80
19039;DHT22;9652;49.014;12.052;2023-02-21T03:44:57;7.50;62.80
19039;DHT22;9652;49.014;12.052;2023-02-21T03:47:26;7.40;62.80
19039;DHT22;9652;49.014;12.052;2023-02-21T03:49:53;7.40;62.80
19039;DHT22;9652;49.014;12.052;2023-02-21T03:52:20;7.40;62.90
19039;DHT22;9652;49.014;12.052;2023-02-21T03:54:50;7.40;63.00
19039;DHT22;9652;49.014;12.052;2023-02-21T03:57:19;7.40;63.10
19039;DHT22;9652;49.014;12.052;2023-02-21T03:59:48;7.30;63.00
19039;DHT22;9652;49.014;12.052;2023-02-21T04:02:16;7.30;63.00
19039;DHT22;9652;49.014;12.052;2023-02-21T04:04:43;7.30;63.10
19039;DHT22;9652;49.014;12.052;2023-02-21T04:07:16;7.30;63.20
19039;DHT22;9652;49.014;12.052;2023-02-21T04:09:45;7.30;63.20
19039;DHT22;9652;49.014;12.052;2023-02-21T04:12:19;7.30;63.20
19039;DHT22;9652;49.014;12.052;2023-02-21T04:14:47;7.20;63.20
19039;DHT22;9652;49.014;12.052;2023-02-21T04:17:17;7.20;63.20
19039;DHT22;9652;49.014;12.052;2023-02-21T04:19:44;7.20;63.10
19039;DHT22;9652;49.014;12.052;2023-02-21T04:22:11;7.20;63.20
19039;DHT22;9652;49.014;12.052;2023-02-21T04:24:38;7.20;63.20
19039;DHT22;9652;49.014;12.052;2023-02-21T04:27:06;7.10;63.20
19039;DHT22;9652;49.014;12.052;2023-02-21T04:29:37;7.10;63.20
19039;DHT22;9652;49.014;12.052;2023-02-21T04:32:05;7.10;63.30
19039;DHT22;9652;49.014;12.052;2023-02-21T04:34:33;7.10;63.20
19039;DHT22;9652;49.014;12.052;2023-02-21T04:37:00;7.00;63.30
19039;DHT22;9652;49.014;12.052;2023-02-21T04:39:27;7.00;63.30
19039;DHT22;9652;49.014;12.052;2023-02-21T04:41:54;7.00;63.40
19039;DHT22;9652;49.014;12.052;2023-02-21T04:44:21;7.00;63.50
19039;DHT22;9652;49.014;12.052;2023-02-21T04:46:50;7.00;63.50
19039;DHT22;9652;49.014;12.052;2023-02-21T04:49:17;7.00;63.70
19039;DHT22;9652;49.014;12.052;2023-02-21T04:51:44;7.00;63.50
19039;DHT22;9652;49.014;12.052;2023-02-21T04:54:11;6.90;63.60
19039;DHT22;9652;49.014;12.052;2023-02-21T04:56:38;6.90;63.50
19039;DHT22;9652;49.014;12.052;2023-02-21T04:59:05;6.90;63.60
19039;DHT22;9652;49.014;12.052;2023-02-21T05:01:32;6.90;63.70
19039;DHT22;9652;49.014;12.052;2023-02-21T05:04:01;6.90;63.70
19039;DHT22;9652;49.014;12.052;2023-02-21T05:06:30;6.90;63.80
19039;DHT22;9652;49.014;12.052;2023-02-21T05:08:58;6.80;63.70
19039;DHT22;9652;49.014;12.052;2023-02-21T05:11:26;6.80;63.70
19039;DHT22;9652;49.014;12.052;2023-02-21T05:13:53;6.80;63.70
19039;DHT22;9652;49.014;12.052;2023-02-21T05:16:20;6.80;63.80
19039;DHT22;9652;49.014;12.052;2023-02-21T05:18:47;6.80;63.80
19039;DHT22;9652;49.014;12.052;2023-02-21T05:21:18;6.80;63.90
19039;DHT22;9652;49.014;12.052;2023-02-21T05:23:46;6.80;64.00
19039;DHT22;9652;49.014;12.052;2023-02-21T05:26:22;6.70;63.90
19039;DHT22;9652;49.014;12.052;2023-02-21T05:28:51;6.70;64.20
19039;DHT22;9652;49.014;12.052;2023-02-21T05:31:19;6.70;64.30
19039;DHT22;9652;49.014;12.052;2023-02-21T05:33:46;6.70;64.40
19039;DHT22;9652;49.014;12.052;2023-02-21T05:36:13;6.80;64.90
19039;DHT22;9652;49.014;12.052;2023-02-21T05:38:48;6.80;65.20
19039;DHT22;9652;49.014;12.052;2023-02-21T05:41:17;6.80;65.60
19039;DHT22;9652;49.014;12.052;2023-02-21T05:43:47;6.90;65.50
19039;DHT22;9652;49.014;12.052;2023-02-21T05:46:17;7.00;65.50
19039;DHT22;9652;49.014;12.052;2023-02-21T05:48:46;7.00;65.60
19039;DHT22;9652;49.014;12.052;2023-02-21T05:51:13;7.10;65.60
19039;DHT22;9652;49.014;12.052;2023-02-21T05:53:41;7.10;65.40
19039;DHT22;9652;49.014;12.052;2023-02-21T05:56:10;7.20;65.40
19039;DHT22;9652;49.014;12.052;2023-02-21T05:58:38;7.20;65.50
19039;DHT22;9652;49.014;12.052;2023-02-21T06:01:05;7.30;65.90
19039;DHT22;9652;49.014;12.052;2023-02-21T06:03:32;7.30;66.10
19039;DHT22;9652;49.014;12.052;2023-02-21T06:06:00;7.40;66.40
19039;DHT22;9652;49.014;12.052;2023-02-21T06:08:27;7.50;66.60
19039;DHT22;9652;49.014;12.052;2023-02-21T06:10:54;7.50;66.60
19039;DHT22;9652;49.014;12.052;2023-02-21T06:13:22;7.70;66.70
19039;DHT22;9652;49.014;12.052;2023-02-21T06:15:49;7.70;66.60
19039;DHT22;9652;49.014;12.052;2023-02-21T06:18:17;8.00;66.80
19039;DHT22;9652;49.014;12.052;2023-02-21T06:20:43;8.00;66.60
19039;DHT22;9652;49.014;12.052;2023-02-21T06:23:11;8.10;66.50
19039;DHT22;9652;49.014;12.052;2023-02-21T06:25:38;8.20;66.40
19039;DHT22;9652;49.014;12.052;2023-02-21T06:28:05;8.30;66.30
19039;DHT22;9652;49.014;12.052;2023-02-21T06:30:34;8.40;66.30
19039;DHT22;9652;49.014;12.052;2023-02-21T06:33:02;8.50;66.20
19039;DHT22;9652;49.014;12.052;2023-02-21T06:35:29;8.60;66.10
19039;DHT22;9652;49.014;12.052;2023-02-21T06:37:56;8.70;66.00
19039;DHT22;9652;49.014;12.052;2023-02-21T06:40:23;8.70;65.70
19039;DHT22;9652;49.014;12.052;2023-02-21T06:42:50;8.80;65.70
19039;DHT22;9652;49.014;12.052;2023-02-21T06:45:17;8.90;65.60
19039;DHT22;9652;49.014;12.052;2023-02-21T06:47:46;9.00;65.50
19039;DHT22;9652;49.014;12.052;2023-02-21T06:50:13;9.00;65.50
19039;DHT22;9652;49.014;12.052;2023-02-21T06:52:40;9.10;65.30
19039;DHT22;9652;49.014;12.052;2023-02-21T06:55:07;9.20;65.30
19039;DHT22;9652;49.014;12.052;2023-02-21T06:57:34;9.20;65.10
19039;DHT22;9652;49.014;12.052;2023-02-21T07:00:01;9.30;65.00
19039;DHT22;9652;49.014;12.052;2023-02-21T07:02:28;9.40;65.00
19039;DHT22;9652;49.014;12.052;2023-02-21T07:04:57;9.50;64.80
19039;DHT22;9652;49.014;12.052;2023-02-21T07:07:24;9.50;64.70
19039;DHT22;9652;49.014;12.052;2023-02-21T07:09:51;9.60;64.60
19039;DHT22;9652;49.014;12.052;2023-02-21T07:12:18;9.60;64.40
19039;DHT22;9652;49.014;12.052;2023-02-21T07:14:45;9.70;64.40
19039;DHT22;9652;49.014;12.052;2023-02-21T07:17:12;9.70;64.20
19039;DHT22;9652;49.014;12.052;2023-02-21T07:19:39;9.80;64.20
19039;DHT22;9652;49.014;12.052;2023-02-21T07:22:08;9.80;64.00
19039;DHT22;9652;49.014;12.052;2023-02-21T07:24:35;9.90;64.00
19039;DHT22;9652;49.014;12.052;2023-02-21T07:27:03;10.00;64.00
19039;DHT22;9652;49.014;12.052;2023-02-21T07:29:30;10.00;63.90
19039;DHT22;9652;49.014;12.052;2023-02-21T07:31:57;10.10;63.80
19039;DHT22;9652;49.014;12.052;2023-02-21T07:34:24;10.10;63.50
19039;DHT22;9652;49.014;12.052;2023-02-21T07:36:51;10.10;63.00
19039;DHT22;9652;49.014;12.052;2023-02-21T07:39:19;10.10;62.70
19039;DHT22;9652;49.014;12.052;2023-02-21T07:41:46;10.10;62.50
19039;DHT22;9652;49.014;12.052;2023-02-21T07:44:21;10.10;62.30
19039;DHT22;9652;49.014;12.052;2023-02-21T07:46:48;10.10;62.20
19039;DHT22;9652;49.014;12.052;2023-02-21T07:49:15;10.00;62.20
19039;DHT22;9652;49.014;12.052;2023-02-21T07:51:43;10.00;62.30
19039;DHT22;9652;49.014;12.052;2023-02-21T07:54:10;10.00;62.50
19039;DHT22;9652;49.014;12.052;2023-02-21T07:56:42;10.00;62.50
19039;DHT22;9652;49.014;12.052;2023-02-21T07:59:10;10.00;62.70
19039;DHT22;9652;49.014;12.052;2023-02-21T08:01:38;10.00;62.80
19039;DHT22;9652;49.014;12.052;2023-02-21T08:04:05;10.00;63.20
19039;DHT22;9652;49.014;12.052;2023-02-21T08:06:33;10.10;63.50
19039;DHT22;9652;49.014;12.052;2023-02-21T08:09:01;10.20;63.70
19039;DHT22;9652;49.014;12.052;2023-02-21T08:11:30;10.30;63.80
19039;DHT22;9652;49.014;12.052;2023-02-21T08:13:58;10.40;63.80
19039;DHT22;9652;49.014;12.052;2023-02-21T08:16:25;10.50;63.80
19039;DHT22;9652;49.014;12.052;2023-02-21T08:18:52;10.60;63.80
19039;DHT22;9652;49.014;12.052;2023-02-21T08:21:19;10.80;63.90
19039;DHT22;9652;49.014;12.052;2023-02-21T08:23:46;10.90;64.00
19039;DHT22;9652;49.014;12.052;2023-02-21T08:26:13;11.00;63.90
19039;DHT22;9652;49.014;12.052;2023-02-21T08:28:40;11.10;63.90
19039;DHT22;9652;49.014;12.052;2023-02-21T08:31:09;11.30;64.00
19039;DHT22;9652;49.014;12.052;2023-02-21T08:33:36;11.40;63.80
19039;DHT22;9652;49.014;12.052;2023-02-21T08:36:04;11.60;63.70
19039;DHT22;9652;49.014;12.052;2023-02-21T08:38:31;11.70;63.60
19039;DHT22;9652;49.014;12.052;2023-02-21T08:40:59;11.80;63.30
19039;DHT22;9652;49.014;12.052;2023-02-21T08:43:27;11.90;63.00
19039;DHT22;9652;49.014;12.052;2023-02-21T08:45:54;12.00;62.70
19039;DHT22;9652;49.014;12.052;2023-02-21T08:48:23;12.10;62.30
19039;DHT22;9652;49.014;12.052;2023-02-21T08:50:50;12.20;61.90
19039;DHT22;9652;49.014;12.052;2023-02-21T08:53:18;12.20;61.60
19039;DHT22;9652;49.014;12.052;2023-02-21T08:55:45;12.20;61.10
19039;DHT22;9652;49.014;12.052;2023-02-21T08:58:12;12.30;60.70
19039;DHT22;9652;49.014;12.052;2023-02-21T09:00:39;12.20;60.50
19039;DHT22;9652;49.014;12.052;2023-02-21T09:03:06;12.20;60.40
19039;DHT22;9652;49.014;12.052;2023-02-21T09:05:35;12.10;60.40
19039;DHT22;9652;49.014;12.052;2023-02-21T09:08:02;12.10;60.50
19039;DHT22;9652;49.014;12.052;2023-02-21T09:10:31;12.10;60.60
19039;DHT22;9652;49.014;12.052;2023-02-21T09:12:59;12.10;60.60
19039;DHT22;9652;49.014;12.052;2023-02-21T09:15:26;12.10;60.60
19039;DHT22;9652;49.014;12.052;2023-02-21T09:17:54;12.10;60.60
19039;DHT22;9652;49.014;12.052;2023-02-21T09:20:23;12.10;60.80
19039;DHT22;9652;49.014;12.052;2023-02-21T09:22:53;12.10;60.90
19039;DHT22;9652;49.014;12.052;2023-02-21T09:25:22;12.20;61.10
19039;DHT22;9652;49.014;12.052;2023-02-21T09:27:51;12.20;61.00
19039;DHT22;9652;49.014;12.052;2023-02-21T09:30:20;12.20;61.10
19039;DHT22;9652;49.014;12.052;2023-02-21T09:32:50;12.30;61.00
19039;DHT22;9652;49.014;12.052;2023-02-21T09:35:17;12.30;61.00
19039;DHT22;9652;49.014;12.052;2023-02-21T09:37:45;12.40;61.10
19039;DHT22;9652;49.014;12.052;2023-02-21T09:40:23;12.50;61.10
19039;DHT22;9652;49.014;12.052;2023-02-21T09:42:58;12.60;60.80
19039;DHT22;9652;49.014;12.052;2023-02-21T09:45:30;12.70;60.90
19039;DHT22;9652;49.014;12.052;2023-02-21T09:48:01;12.70;60.90
19039;DHT22;9652;49.014;12.052;2023-02-21T09:50:36;12.80;61.00
19039;DHT22;9652;49.014;12.052;2023-02-21T09:53:07;12.80;60.90
19039;DHT22;9652;49.014;12.052;2023-02-21T09:55:39;12.90;61.10
19039;DHT22;9652;49.014;12.052;2023-02-21T09:58:11;13.00;61.20
19039;DHT22;9652;49.014;12.052;2023-02-21T10:00:39;13.20;61.10
19039;DHT22;9652;49.014;12.052;2023-02-21T10:03:24;13.30;61.10
19039;DHT22;9652;49.014;12.052;2023-02-21T10:06:05;13.40;60.80
19039;DHT22;9652;49.014;12.052;2023-02-21T10:08:46;13.60;61.10
19039;DHT22;9652;49.014;12.052;2023-02-21T10:11:32;13.70;60.80
19039;DHT22;9652;49.014;12.052;2023-02-21T10:14:18;13.90;60.60
19039;DHT22;9652;49.014;12.052;2023-02-21T10:16:56;14.00;60.60
19039;DHT22;9652;49.014;12.052;2023-02-21T10:19:41;14.10;60.70
19039;DHT22;9652;49.014;12.052;2023-02-21T10:22:14;14.40;60.50
19039;DHT22;9652;49.014;12.052;2023-02-21T10:24:46;14.50;60.30
19039;DHT22;9652;49.014;12.052;2023-02-21T10:27:18;14.70;60.30
19039;DHT22;9652;49.014;12.052;2023-02-21T10:29:50;14.70;60.00
19039;DHT22;9652;49.014;12.052;2023-02-21T10:32:20;14.80;59.80
19039;DHT22;9652;49.014;12.052;2023-02-21T10:34:49;14.90;59.70
19039;DHT22;9652;49.014;12.052;2023-02-21T10:37:27;15.00;59.50
19039;DHT22;9652;49.014;12.052;2023-02-21T10:40:09;15.00;59.10
19039;DHT22;9652;49.014;12.052;2023-02-21T10:42:56;15.00;59.00
19039;DHT22;9652;49.014;12.052;2023-02-21T10:45:34;15.10;58.80
19039;DHT22;9652;49.014;12.052;2023-02-21T10:48:05;15.10;58.80
19039;DHT22;9652;49.014;12.052;2023-02-21T10:50:41;15.10;58.90
19039;DHT22;9652;49.014;12.052;2023-02-21T10:53:23;15.10;58.80
19039;DHT22;9652;49.014;12.052;2023-02-21T10:56:07;15.20;58.70
19039;DHT22;9652;49.014;12.052;2023-02-21T10:58:52;15.30;58.80
19039;DHT22;9652;49.014;12.052;2023-02-21T11:01:31;15.40;59.10
19039;DHT22;9652;49.014;12.052;2023-02-21T11:04:04;15.50;58.50
19039;DHT22;9652;49.014;12.052;2023-02-21T11:06:35;15.60;58.70
19039;DHT22;9652;49.014;12.052;2023-02-21T11:09:28;15.70;58.80
19039;DHT22;9652;49.014;12.052;2023-02-21T11:12:03;15.70;58.40
19039;DHT22;9652;49.014;12.052;2023-02-21T11:14:34;15.90;58.90
19039;DHT22;9652;49.014;12.052;2023-02-21T11:17:08;16.00;59.30
19039;DHT22;9652;49.014;12.052;2023-02-21T11:19:50;16.20;59.30
19039;DHT22;9652;49.014;12.052;2023-02-21T11:22:21;16.40;59.30
19039;DHT22;9652;49.014;12.052;2023-02-21T11:24:55;16.70;59.20
19039;DHT22;9652;49.014;12.052;2023-02-21T11:27:28;16.80;58.60
19039;DHT22;9652;49.014;12.052;2023-02-21T11:29:58;17.00;58.40
19039;DHT22;9652;49.014;12.052;2023-02-21T11:32:31;17.00;58.20
19039;DHT22;9652;49.014;12.052;2023-02-21T11:35:04;17.10;58.50
19039;DHT22;9652;49.014;12.052;2023-02-21T11:37:49;17.10;57.90
19039;DHT22;9652;49.014;12.052;2023-02-21T11:40:28;17.20;57.50
19039;DHT22;9652;49.014;12.052;2023-02-21T11:43:11;17.20;57.50
19039;DHT22;9652;49.014;12.052;2023-02-21T11:45:54;17.30;57.60
19039;DHT22;9652;49.014;12.052;2023-02-21T11:48:29;17.30;57.30
19039;DHT22;9652;49.014;12.052;2023-02-21T11:51:04;17.30;57.40
19039;DHT22;9652;49.014;12.052;2023-02-21T11:53:38;17.30;57.20
19039;DHT22;9652;49.014;12.052;2023-02-21T11:56:17;17.40;57.40
19039;DHT22;9652;49.014;12.052;2023-02-21T11:58:55;17.40;57.30
19039;DHT22;9652;49.014;12.052;2023-02-21T12:01:38;17.50;57.20
19039;DHT22;9652;49.014;12.052;2023-02-21T12:04:29;17.60;57.10
19039;DHT22;9652;49.014;12.052;2023-02-21T12:07:15;17.70;57.10
19039;DHT22;9652;49.014;12.052;2023-02-21T12:09:55;17.80;57.30
19039;DHT22;9652;49.014;12.052;2023-02-21T12:12:35;17.90;57.00
19039;DHT22;9652;49.014;12.052;2023-02-21T12:15:20;18.00;56.80
19039;DHT22;9652;49.014;12.052;2023-02-21T12:18:11;18.10;56.60
19039;DHT22;9652;49.014;12.052;2023-02-21T12:21:03;18.10;56.70
19039;DHT22;9652;49.014;12.052;2023-02-21T12:23:46;18.10;56.70
19039;DHT22;9652;49.014;12.052;2023-02-21T12:26:31;18.20;56.70
19039;DHT22;9652;49.014;12.052;2023-02-21T12:29:27;18.30;56.80
19039;DHT22;9652;49.014;12.052;2023-02-21T12:32:18;18.40;56.60
19039;DHT22;9652;49.014;12.052;2023-02-21T12:38:10;18.40;56.00
19039;DHT22;9652;49.014;12.052;2023-02-21T12:40:53;18.50;56.00
19039;DHT22;9652;49.014;12.052;2023-02-21T12:43:39;18.50;56.10
19039;DHT22;9652;49.014;12.052;2023-02-21T12:46:20;18.50;56.30
19039;DHT22;9652;49.014;12.052;2023-02-21T12:48:58;18.60;56.40
19039;DHT22;9652;49.014;12.052;2023-02-21T12:51:34;18.70;56.30
19039;DHT22;9652;49.014;12.052;2023-02-21T12:54:07;18.70;56.20
19039;DHT22;9652;49.014;12.052;2023-02-21T12:56:43;18.70;56.10
19039;DHT22;9652;49.014;12.052;2023-02-21T12:59:19;18.60;55.70
19039;DHT22;9652;49.014;12.052;2023-02-21T13:01:52;18.70;55.60
19039;DHT22;9652;49.014;12.052;2023-02-21T13:04:31;18.70;55.70
19039;DHT22;9652;49.014;12.052;2023-02-21T13:07:09;18.70;55.50
19039;DHT22;9652;49.014;12.052;2023-02-21T13:09:54;18.60;55.40
19039;DHT22;9652;49.014;12.052;2023-02-21T13:12:31;18.60;55.60
19039;DHT22;9652;49.014;12.052;2023-02-21T13:15:13;18.50;55.50
19039;DHT22;9652;49.014;12.052;2023-02-21T13:17:53;18.50;55.40
19039;DHT22;9652;49.014;12.052;2023-02-21T13:20:27;18.40;55.40
19039;DHT22;9652;49.014;12.052;2023-02-21T13:30:12;18.20;55.50
19039;DHT22;9652;49.014;12.052;2023-02-21T13:32:51;18.20;55.80
19039;DHT22;9652;49.014;12.052;2023-02-21T13:35:25;18.10;55.60
19039;DHT22;9652;49.014;12.052;2023-02-21T13:37:56;18.10;55.70
19039;DHT22;9652;49.014;12.052;2023-02-21T13:40:32;18.10;56.00
19039;DHT22;9652;49.014;12.052;2023-02-21T13:43:08;18.00;56.00
19039;DHT22;9652;49.014;12.052;2023-02-21T13:45:38;18.00;56.10
19039;DHT22;9652;49.014;12.052;2023-02-21T13:48:23;18.00;56.20
19039;DHT22;9652;49.014;12.052;2023-02-21T13:50:55;18.00;56.10
19039;DHT22;9652;49.014;12.052;2023-02-21T13:53:26;18.00;56.30
19039;DHT22;9652;49.014;12.052;2023-02-21T13:56:40;18.00;56.30
19039;DHT22;9652;49.014;12.052;2023-02-21T13:59:32;18.00;56.10
19039;DHT22;9652;49.014;12.052;2023-02-21T14:02:21;18.10;56.00
19039;DHT22;9652;49.014;12.052;2023-02-21T14:05:11;18.00;56.00
19039;DHT22;9652;49.014;12.052;2023-02-21T14:07:57;18.00;56.10
19039;DHT22;9652;49.014;12.052;2023-02-21T14:10:37;18.10;56.20
19039;DHT22;9652;49.014;12.052;2023-02-21T14:13:18;18.00;56.20
19039;DHT22;9652;49.014;12.052;2023-02-21T14:15:56;18.10;56.20
19039;DHT22;9652;49.014;12.052;2023-02-21T14:18:27;18.10;56.20
19039;DHT22;9652;49.014;12.052;2023-02-21T14:20:57;18.10;56.30
19039;DHT22;9652;49.014;12.052;2023-02-21T14:23:36;18.10;56.30
19039;DHT22;9652;49.014;12.052;2023-02-21T14:26:36;18.10;56.20
19039;DHT22;9652;49.014;12.052;2023-02-21T14:29:14;18.10;56.10
19039;DHT22;9652;49.014;12.052;2023-02-21T14:31:56;18.10;56.10
19039;DHT22;9652;49.014;12.052;2023-02-21T14:34:52;18.20;56.00
19039;DHT22;9652;49.014;12.052;2023-02-21T14:37:24;18.10;55.80
19039;DHT22;9652;49.014;12.052;2023-02-21T14:40:00;18.10;56.00
19039;DHT22;9652;49.014;12.052;2023-02-21T14:42:42;18.00;56.00
19039;DHT22;9652;49.014;12.052;2023-02-21T14:45:28;17.90;56.00
19039;DHT22;9652;49.014;12.052;2023-02-21T14:51:41;17.90;56.30
19039;DHT22;9652;49.014;12.052;2023-02-21T14:58:18;18.00;56.70
19039;DHT22;9652;49.014;12.052;2023-02-21T15:01:06;18.10;56.60
19039;DHT22;9652;49.014;12.052;2023-02-21T15:03:46;18.20;56.60
19039;DHT22;9652;49.014;12.052;2023-02-21T15:06:20;18.30;56.30
19039;DHT22;9652;49.014;12.052;2023-02-21T15:08:49;18.30;56.10
19039;DHT22;9652;49.014;12.052;2023-02-21T15:11:21;18.30;56.00
19039;DHT22;9652;49.014;12.052;2023-02-21T15:14:12;18.20;55.70
19039;DHT22;9652;49.014;12.052;2023-02-21T15:16:48;18.20;55.60
19039;DHT22;9652;49.014;12.052;2023-02-21T15:19:25;18.10;55.80
19039;DHT22;9652;49.014;12.052;2023-02-21T15:22:21;18.10;55.80
19039;DHT22;9652;49.014;12.052;2023-02-21T15:24:57;18.00;55.80
19039;DHT22;9652;49.014;12.052;2023-02-21T15:28:02;17.90;55.90
19039;DHT22;9652;49.014;12.052;2023-02-21T15:30:35;17.80;55.90
19039;DHT22;9652;49.014;12.052;2023-02-21T15:33:10;17.80;56.00
19039;DHT22;9652;49.014;12.052;2023-02-21T15:35:45;17.70;56.10
19039;DHT22;9652;49.014;12.052;2023-02-21T15:38:20;17.60;56.10
19039;DHT22;9652;49.014;12.052;2023-02-21T15:40:55;17.60;56.20
19039;DHT22;9652;49.014;12.052;2023-02-21T15:43:34;17.50;56.00
19039;DHT22;9652;49.014;12.052;2023-02-21T15:46:11;17.40;55.90
19039;DHT22;9652;49.014;12.052;2023-02-21T15:48:42;17.40;55.90
19039;DHT22;9652;49.014;12.052;2023-02-21T15:51:11;17.30;55.90
19039;DHT22;9652;49.014;12.052;2023-02-21T15:53:39;17.20;55.90
19039;DHT22;9652;49.014;12.052;2023-02-21T15:56:18;17.10;56.00
19039;DHT22;9652;49.014;12.052;2023-02-21T15:59:12;17.00;56.00
19039;DHT22;9652;49.014;12.052;2023-02-21T16:01:44;17.00;56.10
19039;DHT22;9652;49.014;12.052;2023-02-21T16:04:35;16.90;56.10
19039;DHT22;9652;49.014;12.052;2023-02-21T16:07:07;16.80;56.10
19039;DHT22;9652;49.014;12.052;2023-02-21T16:09:45;16.70;56.10
19039;DHT22;9652;49.014;12.052;2023-02-21T16:12:34;16.70;56.10
19039;DHT22;9652;49.014;12.052;2023-02-21T16:15:06;16.60;56.10
19039;DHT22;9652;49.014;12.052;2023-02-21T16:17:44;16.50;56.10
19039;DHT22;9652;49.014;12.052;2023-02-21T16:20:19;16.40;56.20
19039;DHT22;9652;49.014;12.052;2023-02-21T16:23:12;16.30;56.10
19039;DHT22;9652;49.014;12.052;2023-02-21T16:25:59;16.20;56.20
19039;DHT22;9652;49.014;12.052;2023-02-21T16:28:28;16.20;56.30
19039;DHT22;9652;49.014;12.052;2023-02-21T16:30:56;16.10;56.80
19039;DHT22;9652;49.014;12.052;2023-02-21T16:33:26;16.00;56.30
19039;DHT22;9652;49.014;12.052;2023-02-21T16:35:54;15.90;56.30
19039;DHT22;9652;49.014;12.052;2023-02-21T16:38:25;15.80;56.90
19039;DHT22;9652;49.014;12.052;2023-02-21T16:40:52;15.80;56.50
19039;DHT22;9652;49.014;12.052;2023-02-21T16:43:21;15.70;56.50
19039;DHT22;9652;49.014;12.052;2023-02-21T16:45:51;15.60;56.50
19039;DHT22;9652;49.014;12.052;2023-02-21T16:48:24;15.50;56.90